createdAt,value
2023-05-06T00:00:45.884Z,74.10
2023-05-06T00:03:31.763Z,73.90
2023-05-06T00:06:17.325Z,74.20
2023-05-06T00:09:02.975Z,73.00
2023-05-06T00:11:48.458Z,72.50
2023-05-06T00:14:33.878Z,72.60
2023-05-06T00:17:19.156Z,71.40
2023-05-06T00:20:05.326Z,72.10
2023-05-06T00:22:50.457Z,71.50
2023-05-06T00:25:36.156Z,72.20
2023-05-06T00:28:21.728Z,72.90
2023-05-06T00:31:07.089Z,73.50
2023-05-06T00:33:52.295Z,74.10
2023-05-06T00:36:38.551Z,73.40
2023-05-06T00:39:24.707Z,74.30
2023-05-06T00:42:10.325Z,73.40
2023-05-06T00:44:55.738Z,73.90
2023-05-06T00:47:42.182Z,73.00
2023-05-06T00:50:29.688Z,72.90
2023-05-06T00:53:15.192Z,74.70
2023-05-06T00:56:00.376Z,74.80
2023-05-06T00:58:46.086Z,75.30
2023-05-06T01:01:31.963Z,75.30
2023-05-06T01:04:17.431Z,74.60
2023-05-06T01:07:28.767Z,74.30
2023-05-06T01:10:27.796Z,74.70
2023-05-06T01:13:29.504Z,75.20
2023-05-06T01:16:18.105Z,76.10
2023-05-06T01:19:08.966Z,75.60
2023-05-06T01:21:56.308Z,75.20
2023-05-06T01:24:43.532Z,75.00
2023-05-06T01:27:29.452Z,74.90
2023-05-06T01:30:18.038Z,75.10
2023-05-06T01:33:38.311Z,74.70
2023-05-06T01:36:32.200Z,75.10
2023-05-06T01:39:24.625Z,76.60
2023-05-06T01:42:13.682Z,75.80
2023-05-06T01:45:02.327Z,75.50
2023-05-06T01:47:48.390Z,76.40
2023-05-06T01:50:34.955Z,77.00
2023-05-06T01:53:20.348Z,76.70
2023-05-06T01:56:06.435Z,75.60
2023-05-06T01:58:51.703Z,76.70
2023-05-06T02:01:37.291Z,76.90
2023-05-06T02:04:22.849Z,76.90
2023-05-06T02:07:08.362Z,78.00
2023-05-06T02:09:54.041Z,77.90
2023-05-06T02:12:39.514Z,78.80
2023-05-06T02:15:25.052Z,80.00
2023-05-06T02:18:11.332Z,79.30
2023-05-06T02:20:56.697Z,79.90
2023-05-06T02:23:41.970Z,80.10
2023-05-06T02:26:27.615Z,81.40
2023-05-06T02:29:12.987Z,85.50
2023-05-06T02:31:58.666Z,92.20
2023-05-06T02:34:43.821Z,97.60
2023-05-06T02:37:29.122Z,98.00
2023-05-06T02:40:15.082Z,99.40
2023-05-06T02:43:00.320Z,97.80
2023-05-06T02:45:45.651Z,98.30
2023-05-06T02:48:31.046Z,97.60
2023-05-06T02:51:16.686Z,96.90
2023-05-06T02:54:02.552Z,96.30
2023-05-06T02:56:47.904Z,93.40
2023-05-06T02:59:33.361Z,92.00
2023-05-06T03:02:18.762Z,91.50
2023-05-06T03:05:04.851Z,90.90
2023-05-06T03:07:50.392Z,90.30
2023-05-06T03:10:35.901Z,89.50
2023-05-06T03:13:21.687Z,89.70
2023-05-06T03:16:13.292Z,88.90
2023-05-06T03:18:58.562Z,87.70
2023-05-06T03:21:44.097Z,87.30
2023-05-06T03:24:29.272Z,86.90
2023-05-06T03:27:14.861Z,86.40
2023-05-06T03:30:00.206Z,84.70
2023-05-06T03:32:47.339Z,84.20
2023-05-06T03:35:32.576Z,84.20
2023-05-06T03:38:18.280Z,84.40
2023-05-06T03:41:03.937Z,84.90
2023-05-06T03:43:49.181Z,85.00
2023-05-06T03:46:34.679Z,86.70
2023-05-06T03:49:20.875Z,88.80
2023-05-06T03:52:06.129Z,89.70
2023-05-06T03:54:51.759Z,91.70
2023-05-06T03:57:36.934Z,94.90
2023-05-06T04:00:22.457Z,99.10
2023-05-06T04:03:08.183Z,99.90
2023-05-06T04:05:53.969Z,99.90
2023-05-06T04:08:39.710Z,99.90
2023-05-06T04:11:25.250Z,99.40
2023-05-06T04:14:10.592Z,98.40
2023-05-06T04:16:55.900Z,96.20
2023-05-06T04:19:41.365Z,95.30
2023-05-06T04:22:26.998Z,95.40
2023-05-06T04:25:12.908Z,95.10
2023-05-06T04:27:58.523Z,95.00
2023-05-06T04:30:45.093Z,94.20
2023-05-06T04:33:31.809Z,93.40
2023-05-06T04:36:17.357Z,92.30
2023-05-06T04:39:03.255Z,93.10
2023-05-06T04:41:49.238Z,93.30
2023-05-06T04:44:34.617Z,93.50
2023-05-06T04:47:20.286Z,92.70
2023-05-06T04:50:06.156Z,91.90
2023-05-06T04:52:51.670Z,91.70
2023-05-06T04:55:36.951Z,91.20
2023-05-06T04:58:22.622Z,90.30
2023-05-06T05:01:09.598Z,90.00
2023-05-06T05:03:55.028Z,89.70
2023-05-06T05:06:40.851Z,88.50
2023-05-06T05:09:26.652Z,87.80
2023-05-06T05:12:11.933Z,87.70
2023-05-06T05:14:57.702Z,86.80
2023-05-06T05:17:43.449Z,88.10
2023-05-06T05:20:28.867Z,87.80
2023-05-06T05:23:14.497Z,87.70
2023-05-06T05:26:00.156Z,86.10
2023-05-06T05:28:45.541Z,86.40
2023-05-06T05:31:31.564Z,85.40
2023-05-06T05:34:17.338Z,84.60
2023-05-06T05:37:02.874Z,84.80
2023-05-06T05:39:48.588Z,82.80
2023-05-06T05:42:34.150Z,83.20
2023-05-06T05:45:19.489Z,81.70
2023-05-06T05:48:05.474Z,81.10
2023-05-06T05:50:50.874Z,81.40
2023-05-06T05:53:36.316Z,79.00
2023-05-06T05:56:21.930Z,81.00
2023-05-06T05:59:08.276Z,79.80
2023-05-06T06:01:54.923Z,78.90
2023-05-06T06:04:41.078Z,81.10
2023-05-06T06:07:26.442Z,82.60
2023-05-06T06:10:14.014Z,84.70
2023-05-06T06:12:59.482Z,83.90
2023-05-06T06:15:44.840Z,83.70
2023-05-06T06:18:30.220Z,83.40
2023-05-06T06:21:15.885Z,81.50
2023-05-06T06:24:01.646Z,82.60
2023-05-06T06:26:48.309Z,76.80
2023-05-06T06:29:33.704Z,77.70
2023-05-06T06:32:20.382Z,72.90
2023-05-06T06:35:06.017Z,69.90
2023-05-06T06:37:51.774Z,70.20
2023-05-06T06:40:37.468Z,70.80
2023-05-06T06:43:23.865Z,68.60
2023-05-06T06:46:09.227Z,65.80
2023-05-06T06:48:55.268Z,67.40
2023-05-06T06:51:40.792Z,67.10
2023-05-06T06:54:26.416Z,66.60
2023-05-06T06:57:11.638Z,65.40
2023-05-06T06:59:57.118Z,64.90
2023-05-06T07:02:42.686Z,66.00
2023-05-06T07:05:28.449Z,66.00
2023-05-06T07:08:13.780Z,65.80
2023-05-06T07:10:59.002Z,67.20
2023-05-06T07:13:44.528Z,72.50
2023-05-06T07:16:30.048Z,72.00
2023-05-06T07:19:15.695Z,68.20
2023-05-06T07:22:02.490Z,66.20
2023-05-06T07:24:48.054Z,65.40
2023-05-06T07:27:33.514Z,67.00
2023-05-06T07:30:22.415Z,67.50
2023-05-06T07:33:08.581Z,65.70
2023-05-06T07:35:54.793Z,66.20
2023-05-06T07:38:41.091Z,65.20
2023-05-06T07:41:26.786Z,67.00
2023-05-06T07:44:12.448Z,59.10
2023-05-06T07:46:58.237Z,60.50
2023-05-06T07:49:43.654Z,56.80
2023-05-06T07:52:29.105Z,59.70
2023-05-06T07:55:14.722Z,60.80
2023-05-06T07:58:00.399Z,59.00
2023-05-06T08:00:45.744Z,60.30
2023-05-06T08:03:31.761Z,63.00
2023-05-06T08:06:17.614Z,61.20
2023-05-06T08:09:03.141Z,59.00
2023-05-06T08:11:49.794Z,60.40
2023-05-06T08:14:35.059Z,58.20
2023-05-06T08:17:20.803Z,54.40
2023-05-06T08:20:07.212Z,56.80
2023-05-06T08:22:53.227Z,58.90
2023-05-06T08:25:38.586Z,53.20
2023-05-06T08:28:25.196Z,52.40
2023-05-06T08:31:11.130Z,57.10
2023-05-06T08:33:56.240Z,58.40
2023-05-06T08:36:41.906Z,52.50
2023-05-06T08:39:28.108Z,53.30
2023-05-06T08:42:13.515Z,53.70
2023-05-06T08:44:59.419Z,50.50
2023-05-06T08:47:46.317Z,50.70
2023-05-06T08:50:32.698Z,46.40
2023-05-06T08:53:18.796Z,48.00
2023-05-06T08:56:08.812Z,50.10
2023-05-06T08:58:56.172Z,50.00
2023-05-06T09:01:41.659Z,48.60
2023-05-06T09:04:27.281Z,52.80
2023-05-06T09:07:12.614Z,51.80
2023-05-06T09:09:58.118Z,49.30
2023-05-06T09:12:43.838Z,45.70
2023-05-06T09:15:40.823Z,45.90
2023-05-06T09:18:26.143Z,47.00
2023-05-06T09:21:11.636Z,41.20
2023-05-06T09:23:58.374Z,42.80
2023-05-06T09:26:45.825Z,42.20
2023-05-06T09:29:31.043Z,38.60
2023-05-06T09:32:17.800Z,42.60
2023-05-06T09:35:03.460Z,40.60
2023-05-06T09:37:48.765Z,38.80
2023-05-06T09:40:36.324Z,41.80
2023-05-06T09:43:21.598Z,40.90
2023-05-06T09:46:07.094Z,38.90
2023-05-06T09:48:54.663Z,40.10
2023-05-06T09:51:43.403Z,38.60
2023-05-06T09:54:29.597Z,35.30
2023-05-06T09:57:18.409Z,33.00
2023-05-06T10:00:07.252Z,34.20
2023-05-06T10:02:53.270Z,36.20
2023-05-06T10:05:39.762Z,34.70
2023-05-06T10:08:26.200Z,29.70
2023-05-06T10:11:11.943Z,31.00
2023-05-06T10:13:59.951Z,30.80
2023-05-06T10:16:48.576Z,31.60
2023-05-06T10:19:34.962Z,34.30
2023-05-06T10:22:39.401Z,32.30
2023-05-06T10:25:27.922Z,30.30
2023-05-06T10:28:19.106Z,30.70
2023-05-06T10:31:16.721Z,31.30
2023-05-06T10:34:07.667Z,29.20
2023-05-06T10:36:57.604Z,29.70
2023-05-06T10:39:44.040Z,32.40
2023-05-06T10:42:34.685Z,28.80
2023-05-06T10:45:19.765Z,27.40
2023-05-06T10:48:08.686Z,27.80
2023-05-06T10:51:15.888Z,28.30
2023-05-06T10:54:06.825Z,21.20
2023-05-06T10:57:07.889Z,27.40
2023-05-06T10:59:55.610Z,28.10
2023-05-06T11:02:41.656Z,26.00
2023-05-06T11:05:27.538Z,23.40
2023-05-06T11:08:13.345Z,28.90
2023-05-06T11:10:58.640Z,23.70
2023-05-06T11:13:43.905Z,23.40
2023-05-06T11:16:48.523Z,22.20
2023-05-06T11:19:34.696Z,26.40
2023-05-06T11:22:40.185Z,22.40
2023-05-06T11:25:51.834Z,21.90
2023-05-06T11:28:37.432Z,20.40
2023-05-06T11:31:23.065Z,20.90
2023-05-06T11:34:10.436Z,21.70
2023-05-06T11:37:04.396Z,19.20
2023-05-06T11:39:49.928Z,21.90
2023-05-06T11:42:35.349Z,23.50
2023-05-06T11:45:20.674Z,24.60
2023-05-06T11:48:06.499Z,20.80
2023-05-06T11:50:51.633Z,18.50
2023-05-06T11:53:37.731Z,15.70
2023-05-06T11:56:22.943Z,14.80
2023-05-06T11:59:08.657Z,22.00
2023-05-06T12:01:54.197Z,19.90
2023-05-06T12:04:44.507Z,18.50
2023-05-06T12:07:30.180Z,18.00
2023-05-06T12:10:17.272Z,17.70
2023-05-06T12:13:03.112Z,17.80
2023-05-06T12:15:50.057Z,17.10
2023-05-06T12:18:36.283Z,12.60
2023-05-06T12:21:25.024Z,15.70
2023-05-06T12:24:11.025Z,15.80
2023-05-06T12:26:56.644Z,17.80
2023-05-06T12:29:53.059Z,14.40
2023-05-06T12:32:57.422Z,13.10
2023-05-06T12:35:42.865Z,11.20
2023-05-06T12:38:28.466Z,13.50
2023-05-06T12:41:13.709Z,17.00
2023-05-06T12:43:59.276Z,16.10
2023-05-06T12:46:52.611Z,16.20
2023-05-06T12:49:49.122Z,12.90
2023-05-06T12:52:43.889Z,14.20
2023-05-06T12:55:31.539Z,13.20
2023-05-06T12:58:18.792Z,11.50
2023-05-06T13:01:04.799Z,10.90
2023-05-06T13:03:50.885Z,9.30
2023-05-06T13:06:36.167Z,8.90
2023-05-06T13:09:21.968Z,13.20
2023-05-06T13:12:07.668Z,10.90
2023-05-06T13:14:53.045Z,7.80
2023-05-06T13:17:38.646Z,9.50
2023-05-06T13:20:24.268Z,12.30
2023-05-06T13:23:09.841Z,12.60
2023-05-06T13:26:04.185Z,15.20
2023-05-06T13:28:51.218Z,16.10
2023-05-06T13:31:36.603Z,14.10
2023-05-06T13:34:22.051Z,12.00
2023-05-06T13:37:07.825Z,7.90
2023-05-06T13:39:53.036Z,8.90
2023-05-06T13:42:38.923Z,14.20
2023-05-06T13:45:24.580Z,10.20
2023-05-06T13:48:10.298Z,10.00
2023-05-06T13:50:55.421Z,7.40
2023-05-06T13:53:41.189Z,11.10
2023-05-06T13:56:26.722Z,10.20
2023-05-06T13:59:14.038Z,9.60
2023-05-06T14:02:01.105Z,12.30
2023-05-06T14:04:46.931Z,12.70
2023-05-06T14:07:32.211Z,12.80
2023-05-06T14:10:20.090Z,11.60
2023-05-06T14:13:07.143Z,12.10
2023-05-06T14:15:53.005Z,13.40
2023-05-06T14:18:38.287Z,9.00
2023-05-06T14:21:23.944Z,12.70
2023-05-06T14:24:10.240Z,12.00
2023-05-06T14:26:55.725Z,14.00
2023-05-06T14:29:43.228Z,13.60
2023-05-06T14:32:28.566Z,10.20
2023-05-06T14:35:14.115Z,10.30
2023-05-06T14:37:59.828Z,11.90
2023-05-06T14:40:45.063Z,11.60
2023-05-06T14:43:30.961Z,9.90
2023-05-06T14:46:16.539Z,11.80
2023-05-06T14:49:01.756Z,11.90
2023-05-06T14:51:49.876Z,11.40
2023-05-06T14:54:37.181Z,11.70
2023-05-06T14:57:22.581Z,11.50
2023-05-06T15:00:10.031Z,10.70
2023-05-06T15:02:56.409Z,10.80
2023-05-06T15:05:41.879Z,10.30
2023-05-06T15:08:27.417Z,10.00
2023-05-06T15:11:12.904Z,9.70
2023-05-06T15:13:58.168Z,9.20
2023-05-06T15:16:43.677Z,10.80
2023-05-06T15:19:29.569Z,11.70
2023-05-06T15:22:14.922Z,14.50
2023-05-06T15:25:00.776Z,14.90
2023-05-06T15:27:46.266Z,13.80
2023-05-06T15:30:32.111Z,15.90
2023-05-06T15:33:17.553Z,14.90
2023-05-06T15:36:03.244Z,15.80
2023-05-06T15:38:51.414Z,15.40
2023-05-06T15:41:38.541Z,16.60
2023-05-06T15:44:24.196Z,19.10
2023-05-06T15:47:09.452Z,19.60
2023-05-06T15:49:55.309Z,18.90
2023-05-06T15:52:45.068Z,19.50
2023-05-06T15:55:35.045Z,21.80
2023-05-06T15:58:26.405Z,22.60
2023-05-06T16:01:12.440Z,19.90
2023-05-06T16:03:57.972Z,18.10
2023-05-06T16:06:43.222Z,21.10
2023-05-06T16:09:28.652Z,19.00
2023-05-06T16:12:14.782Z,21.50
2023-05-06T16:15:01.821Z,19.30
2023-05-06T16:17:47.566Z,20.00
2023-05-06T16:20:32.910Z,20.10
2023-05-06T16:23:19.514Z,19.40
2023-05-06T16:26:05.012Z,21.90
2023-05-06T16:28:51.205Z,20.00
2023-05-06T16:31:37.697Z,19.20
2023-05-06T16:34:23.296Z,18.30
2023-05-06T16:37:08.506Z,18.70
2023-05-06T16:39:54.188Z,19.80
2023-05-06T16:42:40.062Z,20.00
2023-05-06T16:45:25.518Z,18.40
2023-05-06T16:48:14.752Z,17.80
2023-05-06T16:51:00.619Z,18.30
2023-05-06T16:53:46.095Z,17.70
2023-05-06T16:56:43.831Z,16.70
2023-05-06T16:59:37.075Z,15.20
2023-05-06T17:02:22.359Z,15.10
2023-05-06T17:05:08.083Z,16.20
2023-05-06T17:07:53.507Z,16.80
2023-05-06T17:10:39.253Z,16.10
2023-05-06T17:13:24.665Z,17.10
2023-05-06T17:16:09.905Z,17.90
2023-05-06T17:18:58.732Z,18.30
2023-05-06T17:21:43.970Z,18.60
2023-05-06T17:24:29.444Z,19.60
2023-05-06T17:27:14.893Z,18.90
2023-05-06T17:30:03.139Z,18.00
2023-05-06T17:32:48.581Z,18.40
2023-05-06T17:35:34.141Z,18.50
2023-05-06T17:38:19.755Z,19.60
2023-05-06T17:41:05.566Z,19.50
2023-05-06T17:43:51.205Z,20.90
2023-05-06T17:46:36.796Z,24.00
2023-05-06T17:49:22.159Z,25.20
2023-05-06T17:52:07.682Z,27.30
2023-05-06T17:55:15.975Z,29.60
2023-05-06T17:57:59.877Z,32.40
2023-05-06T18:00:45.519Z,32.80
2023-05-06T18:03:30.959Z,33.80
2023-05-06T18:06:16.786Z,35.50
2023-05-06T18:09:02.236Z,36.00
2023-05-06T18:11:47.528Z,37.70
2023-05-06T18:14:33.387Z,39.20
2023-05-06T18:17:18.940Z,41.80
2023-05-06T18:20:06.555Z,44.00
2023-05-06T18:22:52.231Z,45.70
2023-05-06T18:25:37.702Z,46.20
2023-05-06T18:28:23.352Z,46.90
2023-05-06T18:31:08.788Z,47.40
2023-05-06T18:33:53.965Z,47.50
2023-05-06T18:36:39.494Z,46.50
2023-05-06T18:39:25.209Z,44.30
2023-05-06T18:42:10.849Z,44.20
2023-05-06T18:44:56.524Z,42.70
2023-05-06T18:47:42.449Z,42.50
2023-05-06T18:50:27.805Z,42.80
2023-05-06T18:53:13.301Z,42.80
2023-05-06T18:55:58.884Z,42.20
2023-05-06T18:58:44.426Z,42.50
2023-05-06T19:01:30.236Z,43.10
2023-05-06T19:04:16.298Z,44.00
2023-05-06T19:07:02.090Z,42.90
2023-05-06T19:09:47.925Z,43.20
2023-05-06T19:12:34.777Z,43.00
2023-05-06T19:15:20.667Z,42.20
2023-05-06T19:18:06.216Z,42.20
2023-05-06T19:20:53.540Z,42.20
2023-05-06T19:23:40.761Z,41.50
2023-05-06T19:26:29.385Z,42.10
2023-05-06T19:29:15.197Z,43.00
2023-05-06T19:32:02.294Z,42.80
2023-05-06T19:34:47.706Z,43.40
2023-05-06T19:37:35.874Z,42.50
2023-05-06T19:40:22.803Z,43.40
2023-05-06T19:43:08.688Z,43.50
2023-05-06T19:45:54.215Z,43.70
2023-05-06T19:48:39.869Z,44.20
2023-05-06T19:51:25.645Z,44.40
2023-05-06T19:54:10.828Z,44.10
2023-05-06T19:56:56.525Z,44.00
2023-05-06T19:59:42.027Z,44.50
2023-05-06T20:02:27.646Z,45.00
2023-05-06T20:05:13.714Z,45.50
2023-05-06T20:08:00.000Z,46.60
2023-05-06T20:10:45.536Z,46.20
2023-05-06T20:13:30.881Z,46.90
2023-05-06T20:16:16.317Z,48.00
2023-05-06T20:19:02.416Z,47.20
2023-05-06T20:21:48.354Z,47.90
2023-05-06T20:24:34.827Z,48.40
2023-05-06T20:27:22.974Z,48.70
2023-05-06T20:30:09.758Z,49.40
2023-05-06T20:32:55.396Z,50.10
2023-05-06T20:35:40.998Z,50.40
2023-05-06T20:38:27.326Z,50.30
2023-05-06T20:41:12.834Z,50.40
2023-05-06T20:43:58.485Z,50.90
2023-05-06T20:46:44.214Z,51.40
2023-05-06T20:49:30.779Z,50.90
2023-05-06T20:52:16.355Z,51.30
2023-05-06T20:55:02.194Z,51.10
2023-05-06T20:57:47.829Z,51.60
2023-05-06T21:00:33.383Z,51.80
2023-05-06T21:03:19.111Z,52.10
2023-05-06T21:06:04.630Z,52.50
2023-05-06T21:08:51.834Z,52.20
2023-05-06T21:11:37.490Z,52.60
2023-05-06T21:14:24.859Z,53.40
2023-05-06T21:17:10.084Z,53.20
2023-05-06T21:19:55.706Z,53.50
2023-05-06T21:22:41.016Z,53.40
2023-05-06T21:25:26.546Z,53.50
2023-05-06T21:28:11.936Z,53.10
2023-05-06T21:30:57.489Z,53.40
2023-05-06T21:33:42.657Z,54.00
2023-05-06T21:36:28.407Z,54.00
2023-05-06T21:39:14.211Z,54.10
2023-05-06T21:41:59.306Z,55.50
2023-05-06T21:44:45.069Z,54.90
2023-05-06T21:47:30.788Z,55.20
2023-05-06T21:50:16.475Z,54.80
2023-05-06T21:53:01.777Z,55.00
2023-05-06T21:55:47.414Z,56.10
2023-05-06T21:58:32.935Z,55.60
2023-05-06T22:01:18.989Z,56.40
2023-05-06T22:04:11.139Z,56.70
2023-05-06T22:06:57.027Z,56.70
2023-05-06T22:09:42.812Z,57.10
2023-05-06T22:12:28.321Z,57.30
2023-05-06T22:15:14.834Z,57.60
2023-05-06T22:18:00.391Z,58.00
2023-05-06T22:20:46.797Z,58.50
2023-05-06T22:23:32.079Z,57.90
2023-05-06T22:26:17.695Z,58.10
2023-05-06T22:29:04.172Z,58.10
2023-05-06T22:31:49.529Z,58.00
2023-05-06T22:34:34.790Z,58.20
2023-05-06T22:37:20.283Z,59.00
2023-05-06T22:40:07.169Z,58.80
2023-05-06T22:42:52.786Z,59.00
2023-05-06T22:45:38.513Z,59.00
2023-05-06T22:48:23.901Z,58.80
2023-05-06T22:51:09.388Z,59.50
2023-05-06T22:53:54.680Z,59.40
2023-05-06T22:56:40.437Z,59.40
2023-05-06T22:59:25.829Z,59.80
2023-05-06T23:02:11.620Z,60.30
2023-05-06T23:04:57.640Z,60.30
2023-05-06T23:07:43.465Z,60.90
2023-05-06T23:10:29.169Z,60.90
2023-05-06T23:13:14.668Z,61.30
2023-05-06T23:16:00.585Z,61.60
2023-05-06T23:18:46.344Z,61.70
2023-05-06T23:21:31.758Z,61.80
2023-05-06T23:24:17.210Z,61.40
2023-05-06T23:27:02.728Z,61.60
2023-05-06T23:29:48.152Z,62.10
2023-05-06T23:32:35.311Z,62.40
2023-05-06T23:35:20.518Z,62.30
2023-05-06T23:38:06.401Z,62.60
2023-05-06T23:40:52.119Z,62.10
2023-05-06T23:43:37.556Z,62.60
2023-05-06T23:46:23.161Z,62.70
2023-05-06T23:49:09.381Z,63.50
2023-05-06T23:51:55.174Z,62.90
2023-05-06T23:54:40.408Z,63.60
2023-05-06T23:57:26.021Z,63.80
